EKT weather

Eskilstuna Airport
Eskilstuna, Södermanlands län, Sweden

Public forecast

Using degrees Celsius for public forecast. Weather courtesy of forecast.io.

Closest aviation weather report (METAR) to Eskilstuna Airport

Closest report is Stockholm Västerås Airport, 14.5 nm (26.8 km) N. Retrieved 2020/06/04 13:50 UTC (30 minutes ago):

ESOW 041350Z 13013KT CAVOK 20/06 Q1003

Closest aviation forecast (TAF) to Eskilstuna Airport

Forecast is more than 12 hours old.

Closest forecast is Stockholm Västerås Airport, 14.5 nm (26.8 km) N. Retrieved 2018/11/18 12:33 UTC (2 years ago):

TAF ESOW 181130Z 1812/1914 02015KT 9999 BKN020 TEMPO 1812/1814 02015G25KT